sensor_id;sensor_type;location;lat;lon;timestamp;P1;durP1;ratioP1;P2;durP2;ratioP2
20073;SDS011;10197;54.282;10.078;2023-02-15T00:01:30;47.15;;;24.67;;
20073;SDS011;10197;54.282;10.078;2023-02-15T00:03:57;45.35;;;24.90;;
20073;SDS011;10197;54.282;10.078;2023-02-15T00:06:24;50.55;;;27.15;;
20073;SDS011;10197;54.282;10.078;2023-02-15T00:08:51;49.25;;;26.52;;
20073;SDS011;10197;54.282;10.078;2023-02-15T00:11:18;47.90;;;25.33;;
20073;SDS011;10197;54.282;10.078;2023-02-15T00:14:05;46.88;;;25.08;;
20073;SDS011;10197;54.282;10.078;2023-02-15T00:16:34;50.38;;;27.30;;
20073;SDS011;10197;54.282;10.078;2023-02-15T00:19:01;47.33;;;24.95;;
20073;SDS011;10197;54.282;10.078;2023-02-15T00:21:28;47.47;;;25.92;;
20073;SDS011;10197;54.282;10.078;2023-02-15T00:23:56;44.72;;;24.65;;
20073;SDS011;10197;54.282;10.078;2023-02-15T00:26:24;47.72;;;26.35;;
20073;SDS011;10197;54.282;10.078;2023-02-15T00:28:52;47.97;;;25.23;;
20073;SDS011;10197;54.282;10.078;2023-02-15T00:31:19;47.75;;;25.52;;
20073;SDS011;10197;54.282;10.078;2023-02-15T00:33:48;49.50;;;26.38;;
20073;SDS011;10197;54.282;10.078;2023-02-15T00:36:15;48.05;;;25.90;;
20073;SDS011;10197;54.282;10.078;2023-02-15T00:38:41;46.53;;;24.67;;
20073;SDS011;10197;54.282;10.078;2023-02-15T00:41:09;49.33;;;24.13;;
20073;SDS011;10197;54.282;10.078;2023-02-15T00:43:36;47.45;;;25.90;;
20073;SDS011;10197;54.282;10.078;2023-02-15T00:46:04;43.90;;;24.85;;
20073;SDS011;10197;54.282;10.078;2023-02-15T00:48:32;46.05;;;24.88;;
20073;SDS011;10197;54.282;10.078;2023-02-15T00:51:00;43.33;;;23.58;;
20073;SDS011;10197;54.282;10.078;2023-02-15T00:53:28;45.55;;;24.58;;
20073;SDS011;10197;54.282;10.078;2023-02-15T00:55:56;44.30;;;25.05;;
20073;SDS011;10197;54.282;10.078;2023-02-15T00:58:23;45.05;;;24.05;;
20073;SDS011;10197;54.282;10.078;2023-02-15T01:00:51;42.38;;;23.83;;
20073;SDS011;10197;54.282;10.078;2023-02-15T01:03:19;45.33;;;25.63;;
20073;SDS011;10197;54.282;10.078;2023-02-15T01:05:47;49.75;;;24.83;;
20073;SDS011;10197;54.282;10.078;2023-02-15T01:08:17;46.85;;;25.58;;
20073;SDS011;10197;54.282;10.078;2023-02-15T01:10:44;46.22;;;25.65;;
20073;SDS011;10197;54.282;10.078;2023-02-15T01:13:13;45.60;;;24.58;;
20073;SDS011;10197;54.282;10.078;2023-02-15T01:15:41;52.28;;;25.98;;
20073;SDS011;10197;54.282;10.078;2023-02-15T01:18:09;49.58;;;25.85;;
20073;SDS011;10197;54.282;10.078;2023-02-15T01:20:37;59.65;;;27.98;;
20073;SDS011;10197;54.282;10.078;2023-02-15T01:23:07;51.33;;;26.90;;
20073;SDS011;10197;54.282;10.078;2023-02-15T01:25:36;54.00;;;26.48;;
20073;SDS011;10197;54.282;10.078;2023-02-15T01:28:03;53.53;;;26.77;;
20073;SDS011;10197;54.282;10.078;2023-02-15T01:30:31;66.43;;;28.90;;
20073;SDS011;10197;54.282;10.078;2023-02-15T01:32:59;61.55;;;28.88;;
20073;SDS011;10197;54.282;10.078;2023-02-15T01:35:29;58.05;;;28.25;;
20073;SDS011;10197;54.282;10.078;2023-02-15T01:37:57;58.53;;;27.88;;
20073;SDS011;10197;54.282;10.078;2023-02-15T01:40:24;70.72;;;30.33;;
20073;SDS011;10197;54.282;10.078;2023-02-15T01:42:53;70.57;;;29.58;;
20073;SDS011;10197;54.282;10.078;2023-02-15T01:45:23;63.40;;;28.45;;
20073;SDS011;10197;54.282;10.078;2023-02-15T01:47:52;60.22;;;28.60;;
20073;SDS011;10197;54.282;10.078;2023-02-15T01:50:23;58.25;;;28.85;;
20073;SDS011;10197;54.282;10.078;2023-02-15T01:52:55;65.05;;;29.15;;
20073;SDS011;10197;54.282;10.078;2023-02-15T01:55:27;57.47;;;28.13;;
20073;SDS011;10197;54.282;10.078;2023-02-15T01:57:58;66.70;;;30.85;;
20073;SDS011;10197;54.282;10.078;2023-02-15T02:00:25;58.45;;;28.42;;
20073;SDS011;10197;54.282;10.078;2023-02-15T02:05:41;54.78;;;25.95;;
20073;SDS011;10197;54.282;10.078;2023-02-15T02:08:11;53.25;;;22.65;;
20073;SDS011;10197;54.282;10.078;2023-02-15T02:10:38;37.50;;;20.38;;
20073;SDS011;10197;54.282;10.078;2023-02-15T02:13:06;79.18;;;20.92;;
20073;SDS011;10197;54.282;10.078;2023-02-15T02:15:39;47.40;;;19.90;;
20073;SDS011;10197;54.282;10.078;2023-02-15T02:18:14;23.50;;;16.45;;
20073;SDS011;10197;54.282;10.078;2023-02-15T02:23:42;33.33;;;17.02;;
20073;SDS011;10197;54.282;10.078;2023-02-15T02:35:44;35.60;;;17.73;;
20073;SDS011;10197;54.282;10.078;2023-02-15T02:38:19;39.45;;;18.80;;
20073;SDS011;10197;54.282;10.078;2023-02-15T02:40:50;35.72;;;18.42;;
20073;SDS011;10197;54.282;10.078;2023-02-15T02:43:20;28.65;;;18.42;;
20073;SDS011;10197;54.282;10.078;2023-02-15T02:45:53;30.20;;;18.25;;
20073;SDS011;10197;54.282;10.078;2023-02-15T02:48:24;32.58;;;18.35;;
20073;SDS011;10197;54.282;10.078;2023-02-15T02:50:54;30.10;;;18.25;;
20073;SDS011;10197;54.282;10.078;2023-02-15T02:53:20;41.08;;;17.58;;
20073;SDS011;10197;54.282;10.078;2023-02-15T02:55:49;24.15;;;17.83;;
20073;SDS011;10197;54.282;10.078;2023-02-15T02:58:19;28.65;;;17.58;;
20073;SDS011;10197;54.282;10.078;2023-02-15T03:00:49;24.15;;;17.67;;
20073;SDS011;10197;54.282;10.078;2023-02-15T03:03:20;28.42;;;18.17;;
20073;SDS011;10197;54.282;10.078;2023-02-15T03:05:50;29.35;;;18.73;;
20073;SDS011;10197;54.282;10.078;2023-02-15T03:08:20;21.63;;;16.50;;
20073;SDS011;10197;54.282;10.078;2023-02-15T03:10:53;25.45;;;16.95;;
20073;SDS011;10197;54.282;10.078;2023-02-15T03:13:23;24.63;;;16.83;;
20073;SDS011;10197;54.282;10.078;2023-02-15T03:15:50;40.22;;;17.95;;
20073;SDS011;10197;54.282;10.078;2023-02-15T03:18:35;23.20;;;16.10;;
20073;SDS011;10197;54.282;10.078;2023-02-15T03:21:04;24.80;;;16.10;;
20073;SDS011;10197;54.282;10.078;2023-02-15T03:23:33;19.70;;;15.50;;
20073;SDS011;10197;54.282;10.078;2023-02-15T03:26:03;37.15;;;16.95;;
20073;SDS011;10197;54.282;10.078;2023-02-15T03:28:35;32.42;;;17.02;;
20073;SDS011;10197;54.282;10.078;2023-02-15T03:31:04;30.33;;;17.23;;
20073;SDS011;10197;54.282;10.078;2023-02-15T03:33:32;32.95;;;17.50;;
20073;SDS011;10197;54.282;10.078;2023-02-15T03:36:01;29.13;;;17.00;;
20073;SDS011;10197;54.282;10.078;2023-02-15T03:38:35;37.05;;;18.20;;
20073;SDS011;10197;54.282;10.078;2023-02-15T03:41:05;26.83;;;16.42;;
20073;SDS011;10197;54.282;10.078;2023-02-15T03:43:37;47.45;;;18.27;;
20073;SDS011;10197;54.282;10.078;2023-02-15T03:46:11;27.17;;;17.23;;
20073;SDS011;10197;54.282;10.078;2023-02-15T03:48:40;30.38;;;17.02;;
20073;SDS011;10197;54.282;10.078;2023-02-15T03:51:10;31.70;;;19.08;;
20073;SDS011;10197;54.282;10.078;2023-02-15T03:53:59;27.35;;;17.63;;
20073;SDS011;10197;54.282;10.078;2023-02-15T03:56:29;41.63;;;16.58;;
20073;SDS011;10197;54.282;10.078;2023-02-15T03:58:56;63.60;;;18.80;;
20073;SDS011;10197;54.282;10.078;2023-02-15T04:01:42;30.35;;;17.13;;
20073;SDS011;10197;54.282;10.078;2023-02-15T04:04:28;53.40;;;17.45;;
20073;SDS011;10197;54.282;10.078;2023-02-15T04:06:58;38.22;;;16.23;;
20073;SDS011;10197;54.282;10.078;2023-02-15T04:09:26;36.75;;;17.38;;
20073;SDS011;10197;54.282;10.078;2023-02-15T04:12:11;45.80;;;17.55;;
20073;SDS011;10197;54.282;10.078;2023-02-15T04:14:38;39.45;;;16.85;;
20073;SDS011;10197;54.282;10.078;2023-02-15T04:17:22;28.85;;;14.88;;
20073;SDS011;10197;54.282;10.078;2023-02-15T04:19:49;31.88;;;15.73;;
20073;SDS011;10197;54.282;10.078;2023-02-15T04:22:34;42.63;;;18.15;;
20073;SDS011;10197;54.282;10.078;2023-02-15T04:25:19;49.10;;;16.30;;
20073;SDS011;10197;54.282;10.078;2023-02-15T04:27:47;30.50;;;16.48;;
20073;SDS011;10197;54.282;10.078;2023-02-15T04:30:16;59.60;;;18.25;;
20073;SDS011;10197;54.282;10.078;2023-02-15T04:32:44;25.65;;;16.98;;
20073;SDS011;10197;54.282;10.078;2023-02-15T04:35:11;30.15;;;16.77;;
20073;SDS011;10197;54.282;10.078;2023-02-15T04:37:39;55.05;;;18.55;;
20073;SDS011;10197;54.282;10.078;2023-02-15T04:40:07;72.68;;;18.88;;
20073;SDS011;10197;54.282;10.078;2023-02-15T04:42:36;27.33;;;16.25;;
20073;SDS011;10197;54.282;10.078;2023-02-15T04:45:03;26.50;;;17.55;;
20073;SDS011;10197;54.282;10.078;2023-02-15T04:47:31;39.88;;;16.70;;
20073;SDS011;10197;54.282;10.078;2023-02-15T04:49:58;34.88;;;16.35;;
20073;SDS011;10197;54.282;10.078;2023-02-15T04:52:24;40.50;;;17.63;;
20073;SDS011;10197;54.282;10.078;2023-02-15T04:54:51;79.95;;;21.15;;
20073;SDS011;10197;54.282;10.078;2023-02-15T04:57:18;35.40;;;17.20;;
20073;SDS011;10197;54.282;10.078;2023-02-15T04:59:47;50.78;;;16.85;;
20073;SDS011;10197;54.282;10.078;2023-02-15T05:02:13;69.50;;;18.70;;
20073;SDS011;10197;54.282;10.078;2023-02-15T05:04:40;54.03;;;19.05;;
20073;SDS011;10197;54.282;10.078;2023-02-15T05:07:07;38.13;;;17.95;;
20073;SDS011;10197;54.282;10.078;2023-02-15T05:09:34;30.85;;;16.75;;
20073;SDS011;10197;54.282;10.078;2023-02-15T05:12:06;47.95;;;17.63;;
20073;SDS011;10197;54.282;10.078;2023-02-15T05:14:33;51.45;;;19.90;;
20073;SDS011;10197;54.282;10.078;2023-02-15T05:17:01;30.00;;;16.73;;
20073;SDS011;10197;54.282;10.078;2023-02-15T05:19:30;38.63;;;17.13;;
20073;SDS011;10197;54.282;10.078;2023-02-15T05:21:57;31.95;;;16.85;;
20073;SDS011;10197;54.282;10.078;2023-02-15T05:24:24;52.40;;;18.48;;
20073;SDS011;10197;54.282;10.078;2023-02-15T05:27:10;36.70;;;16.67;;
20073;SDS011;10197;54.282;10.078;2023-02-15T05:29:55;28.33;;;16.73;;
20073;SDS011;10197;54.282;10.078;2023-02-15T05:32:23;33.33;;;17.48;;
20073;SDS011;10197;54.282;10.078;2023-02-15T05:34:50;31.42;;;16.23;;
20073;SDS011;10197;54.282;10.078;2023-02-15T05:37:17;70.18;;;19.42;;
20073;SDS011;10197;54.282;10.078;2023-02-15T05:39:44;31.42;;;17.98;;
20073;SDS011;10197;54.282;10.078;2023-02-15T05:42:12;36.70;;;17.77;;
20073;SDS011;10197;54.282;10.078;2023-02-15T05:44:38;36.92;;;18.23;;
20073;SDS011;10197;54.282;10.078;2023-02-15T05:47:05;32.33;;;18.00;;
20073;SDS011;10197;54.282;10.078;2023-02-15T05:49:34;35.58;;;18.27;;
20073;SDS011;10197;54.282;10.078;2023-02-15T05:52:02;42.38;;;17.98;;
20073;SDS011;10197;54.282;10.078;2023-02-15T05:54:29;56.47;;;19.92;;
20073;SDS011;10197;54.282;10.078;2023-02-15T05:56:56;41.38;;;18.05;;
20073;SDS011;10197;54.282;10.078;2023-02-15T05:59:23;40.85;;;18.38;;
20073;SDS011;10197;54.282;10.078;2023-02-15T06:01:49;36.72;;;19.42;;
20073;SDS011;10197;54.282;10.078;2023-02-15T06:04:18;111.47;;;22.25;;
20073;SDS011;10197;54.282;10.078;2023-02-15T06:06:46;182.93;;;25.60;;
20073;SDS011;10197;54.282;10.078;2023-02-15T06:09:13;89.60;;;20.70;;
20073;SDS011;10197;54.282;10.078;2023-02-15T06:11:40;113.10;;;23.90;;
20073;SDS011;10197;54.282;10.078;2023-02-15T06:14:07;43.17;;;19.48;;
20073;SDS011;10197;54.282;10.078;2023-02-15T06:16:34;68.88;;;21.63;;
20073;SDS011;10197;54.282;10.078;2023-02-15T06:19:00;43.20;;;20.02;;
20073;SDS011;10197;54.282;10.078;2023-02-15T06:21:27;43.28;;;18.30;;
20073;SDS011;10197;54.282;10.078;2023-02-15T06:23:56;142.25;;;21.85;;
20073;SDS011;10197;54.282;10.078;2023-02-15T06:26:23;51.10;;;20.77;;
20073;SDS011;10197;54.282;10.078;2023-02-15T06:28:50;55.90;;;19.95;;
20073;SDS011;10197;54.282;10.078;2023-02-15T06:31:17;36.33;;;18.45;;
20073;SDS011;10197;54.282;10.078;2023-02-15T06:33:44;46.35;;;19.70;;
20073;SDS011;10197;54.282;10.078;2023-02-15T06:36:11;37.38;;;17.80;;
20073;SDS011;10197;54.282;10.078;2023-02-15T06:38:39;64.28;;;19.05;;
20073;SDS011;10197;54.282;10.078;2023-02-15T06:41:07;53.67;;;20.10;;
20073;SDS011;10197;54.282;10.078;2023-02-15T06:43:34;162.15;;;26.92;;
20073;SDS011;10197;54.282;10.078;2023-02-15T06:46:01;45.33;;;18.48;;
20073;SDS011;10197;54.282;10.078;2023-02-15T06:48:30;52.92;;;17.63;;
20073;SDS011;10197;54.282;10.078;2023-02-15T06:50:57;67.82;;;19.55;;
20073;SDS011;10197;54.282;10.078;2023-02-15T06:53:24;46.17;;;19.35;;
20073;SDS011;10197;54.282;10.078;2023-02-15T06:55:51;31.35;;;19.15;;
20073;SDS011;10197;54.282;10.078;2023-02-15T06:58:19;47.15;;;20.05;;
20073;SDS011;10197;54.282;10.078;2023-02-15T07:00:46;54.60;;;18.83;;
20073;SDS011;10197;54.282;10.078;2023-02-15T07:03:14;50.13;;;18.98;;
20073;SDS011;10197;54.282;10.078;2023-02-15T07:05:41;35.45;;;18.35;;
20073;SDS011;10197;54.282;10.078;2023-02-15T07:08:08;52.88;;;19.25;;
20073;SDS011;10197;54.282;10.078;2023-02-15T07:10:35;35.45;;;18.63;;
20073;SDS011;10197;54.282;10.078;2023-02-15T07:13:02;34.38;;;17.83;;
20073;SDS011;10197;54.282;10.078;2023-02-15T07:15:30;44.97;;;16.90;;
20073;SDS011;10197;54.282;10.078;2023-02-15T07:17:57;43.45;;;19.02;;
20073;SDS011;10197;54.282;10.078;2023-02-15T07:20:24;67.15;;;21.08;;
20073;SDS011;10197;54.282;10.078;2023-02-15T07:22:51;40.78;;;18.48;;
20073;SDS011;10197;54.282;10.078;2023-02-15T07:25:18;29.73;;;17.67;;
20073;SDS011;10197;54.282;10.078;2023-02-15T07:27:45;52.92;;;19.30;;
20073;SDS011;10197;54.282;10.078;2023-02-15T07:30:13;98.63;;;21.70;;
20073;SDS011;10197;54.282;10.078;2023-02-15T07:32:42;60.40;;;19.67;;
20073;SDS011;10197;54.282;10.078;2023-02-15T07:35:22;52.13;;;18.98;;
20073;SDS011;10197;54.282;10.078;2023-02-15T07:37:49;60.63;;;19.60;;
20073;SDS011;10197;54.282;10.078;2023-02-15T07:40:18;39.40;;;16.77;;
20073;SDS011;10197;54.282;10.078;2023-02-15T07:42:48;98.50;;;20.40;;
20073;SDS011;10197;54.282;10.078;2023-02-15T07:45:17;39.47;;;19.25;;
20073;SDS011;10197;54.282;10.078;2023-02-15T07:47:45;66.05;;;19.75;;
20073;SDS011;10197;54.282;10.078;2023-02-15T07:50:12;42.30;;;18.30;;
20073;SDS011;10197;54.282;10.078;2023-02-15T07:52:39;69.15;;;19.08;;
20073;SDS011;10197;54.282;10.078;2023-02-15T07:55:06;39.97;;;18.58;;
20073;SDS011;10197;54.282;10.078;2023-02-15T07:57:34;33.17;;;17.48;;
20073;SDS011;10197;54.282;10.078;2023-02-15T08:00:01;42.63;;;18.83;;
20073;SDS011;10197;54.282;10.078;2023-02-15T08:02:37;30.45;;;18.00;;
20073;SDS011;10197;54.282;10.078;2023-02-15T08:05:06;40.10;;;17.55;;
20073;SDS011;10197;54.282;10.078;2023-02-15T08:07:34;28.52;;;17.23;;
20073;SDS011;10197;54.282;10.078;2023-02-15T08:10:00;59.70;;;18.30;;
20073;SDS011;10197;54.282;10.078;2023-02-15T08:12:27;48.35;;;17.88;;
20073;SDS011;10197;54.282;10.078;2023-02-15T08:14:54;32.85;;;17.02;;
20073;SDS011;10197;54.282;10.078;2023-02-15T08:17:21;52.15;;;19.25;;
20073;SDS011;10197;54.282;10.078;2023-02-15T08:19:48;52.40;;;18.63;;
20073;SDS011;10197;54.282;10.078;2023-02-15T08:22:20;53.58;;;18.35;;
20073;SDS011;10197;54.282;10.078;2023-02-15T08:24:47;57.13;;;18.67;;
20073;SDS011;10197;54.282;10.078;2023-02-15T08:27:14;38.35;;;16.52;;
20073;SDS011;10197;54.282;10.078;2023-02-15T08:29:40;51.85;;;18.42;;
20073;SDS011;10197;54.282;10.078;2023-02-15T08:32:09;46.38;;;18.35;;
20073;SDS011;10197;54.282;10.078;2023-02-15T08:34:39;34.25;;;17.30;;
20073;SDS011;10197;54.282;10.078;2023-02-15T08:37:07;40.83;;;18.45;;
20073;SDS011;10197;54.282;10.078;2023-02-15T08:39:36;39.92;;;17.75;;
20073;SDS011;10197;54.282;10.078;2023-02-15T08:42:03;27.35;;;16.88;;
20073;SDS011;10197;54.282;10.078;2023-02-15T08:44:30;56.20;;;19.92;;
20073;SDS011;10197;54.282;10.078;2023-02-15T08:46:57;35.40;;;17.30;;
20073;SDS011;10197;54.282;10.078;2023-02-15T08:49:28;83.85;;;20.45;;
20073;SDS011;10197;54.282;10.078;2023-02-15T08:51:55;89.30;;;21.77;;
20073;SDS011;10197;54.282;10.078;2023-02-15T08:54:22;63.72;;;18.83;;
20073;SDS011;10197;54.282;10.078;2023-02-15T08:56:51;27.08;;;17.38;;
20073;SDS011;10197;54.282;10.078;2023-02-15T08:59:19;31.05;;;16.95;;
20073;SDS011;10197;54.282;10.078;2023-02-15T09:01:47;38.42;;;17.70;;
20073;SDS011;10197;54.282;10.078;2023-02-15T09:04:15;32.83;;;18.35;;
20073;SDS011;10197;54.282;10.078;2023-02-15T09:06:42;38.25;;;18.70;;
20073;SDS011;10197;54.282;10.078;2023-02-15T09:09:10;27.15;;;16.80;;
20073;SDS011;10197;54.282;10.078;2023-02-15T09:11:38;43.35;;;16.88;;
20073;SDS011;10197;54.282;10.078;2023-02-15T09:14:07;24.40;;;16.50;;
20073;SDS011;10197;54.282;10.078;2023-02-15T09:16:36;95.50;;;20.30;;
20073;SDS011;10197;54.282;10.078;2023-02-15T09:19:04;32.17;;;16.90;;
20073;SDS011;10197;54.282;10.078;2023-02-15T09:21:31;42.25;;;19.27;;
20073;SDS011;10197;54.282;10.078;2023-02-15T09:24:00;90.45;;;21.05;;
20073;SDS011;10197;54.282;10.078;2023-02-15T09:26:28;92.55;;;21.67;;
20073;SDS011;10197;54.282;10.078;2023-02-15T09:28:57;80.15;;;21.08;;
20073;SDS011;10197;54.282;10.078;2023-02-15T09:31:28;59.47;;;21.38;;
20073;SDS011;10197;54.282;10.078;2023-02-15T09:33:58;29.00;;;17.65;;
20073;SDS011;10197;54.282;10.078;2023-02-15T09:36:26;82.63;;;21.90;;
20073;SDS011;10197;54.282;10.078;2023-02-15T09:38:55;99.05;;;23.30;;
20073;SDS011;10197;54.282;10.078;2023-02-15T09:44:23;32.40;;;19.77;;
20073;SDS011;10197;54.282;10.078;2023-02-15T09:47:02;70.47;;;21.27;;
20073;SDS011;10197;54.282;10.078;2023-02-15T09:49:40;50.60;;;21.90;;
20073;SDS011;10197;54.282;10.078;2023-02-15T09:52:18;88.43;;;22.95;;
20073;SDS011;10197;54.282;10.078;2023-02-15T09:55:05;125.05;;;25.13;;
20073;SDS011;10197;54.282;10.078;2023-02-15T09:57:40;113.82;;;23.42;;
20073;SDS011;10197;54.282;10.078;2023-02-15T10:00:12;55.33;;;23.25;;
20073;SDS011;10197;54.282;10.078;2023-02-15T10:02:51;45.15;;;19.50;;
20073;SDS011;10197;54.282;10.078;2023-02-15T10:05:30;84.88;;;23.75;;
20073;SDS011;10197;54.282;10.078;2023-02-15T10:08:08;86.78;;;23.60;;
20073;SDS011;10197;54.282;10.078;2023-02-15T10:10:41;40.13;;;21.20;;
20073;SDS011;10197;54.282;10.078;2023-02-15T10:13:15;80.00;;;24.95;;
20073;SDS011;10197;54.282;10.078;2023-02-15T10:15:51;182.35;;;27.83;;
20073;SDS011;10197;54.282;10.078;2023-02-15T10:18:26;71.38;;;23.08;;
20073;SDS011;10197;54.282;10.078;2023-02-15T10:21:04;50.70;;;24.10;;
20073;SDS011;10197;54.282;10.078;2023-02-15T10:23:51;57.88;;;22.90;;
20073;SDS011;10197;54.282;10.078;2023-02-15T10:26:30;160.85;;;28.17;;
20073;SDS011;10197;54.282;10.078;2023-02-15T10:29:00;120.00;;;28.80;;
20073;SDS011;10197;54.282;10.078;2023-02-15T10:31:32;144.77;;;28.60;;
20073;SDS011;10197;54.282;10.078;2023-02-15T10:34:14;63.17;;;24.52;;
20073;SDS011;10197;54.282;10.078;2023-02-15T10:39:33;73.28;;;24.50;;
20073;SDS011;10197;54.282;10.078;2023-02-15T10:42:06;160.88;;;30.20;;
20073;SDS011;10197;54.282;10.078;2023-02-15T10:44:41;189.40;;;30.98;;
20073;SDS011;10197;54.282;10.078;2023-02-15T10:47:27;123.47;;;27.42;;
20073;SDS011;10197;54.282;10.078;2023-02-15T10:50:08;46.05;;;23.95;;
20073;SDS011;10197;54.282;10.078;2023-02-15T10:52:48;35.38;;;22.92;;
20073;SDS011;10197;54.282;10.078;2023-02-15T10:55:24;115.38;;;28.38;;
20073;SDS011;10197;54.282;10.078;2023-02-15T10:57:59;139.40;;;30.80;;
20073;SDS011;10197;54.282;10.078;2023-02-15T11:00:32;60.45;;;23.75;;
20073;SDS011;10197;54.282;10.078;2023-02-15T11:03:12;49.35;;;24.55;;
20073;SDS011;10197;54.282;10.078;2023-02-15T11:05:58;108.75;;;28.55;;
20073;SDS011;10197;54.282;10.078;2023-02-15T11:08:29;63.95;;;25.27;;
20073;SDS011;10197;54.282;10.078;2023-02-15T11:10:59;68.10;;;26.65;;
20073;SDS011;10197;54.282;10.078;2023-02-15T11:13:29;62.78;;;28.38;;
20073;SDS011;10197;54.282;10.078;2023-02-15T11:16:00;37.95;;;24.20;;
20073;SDS011;10197;54.282;10.078;2023-02-15T11:18:31;41.33;;;22.67;;
20073;SDS011;10197;54.282;10.078;2023-02-15T11:21:01;44.45;;;23.50;;
20073;SDS011;10197;54.282;10.078;2023-02-15T11:23:29;51.28;;;22.70;;
20073;SDS011;10197;54.282;10.078;2023-02-15T11:25:57;51.38;;;26.50;;
20073;SDS011;10197;54.282;10.078;2023-02-15T11:28:25;100.25;;;29.67;;
20073;SDS011;10197;54.282;10.078;2023-02-15T11:30:56;104.90;;;29.40;;
20073;SDS011;10197;54.282;10.078;2023-02-15T11:33:26;104.00;;;28.30;;
20073;SDS011;10197;54.282;10.078;2023-02-15T11:35:57;64.22;;;26.50;;
20073;SDS011;10197;54.282;10.078;2023-02-15T11:38:31;46.90;;;26.98;;
20073;SDS011;10197;54.282;10.078;2023-02-15T11:40:59;59.63;;;26.70;;
20073;SDS011;10197;54.282;10.078;2023-02-15T11:43:30;80.85;;;27.38;;
20073;SDS011;10197;54.282;10.078;2023-02-15T11:45:59;42.47;;;24.38;;
20073;SDS011;10197;54.282;10.078;2023-02-15T11:48:26;84.25;;;27.80;;
20073;SDS011;10197;54.282;10.078;2023-02-15T11:50:56;45.63;;;25.27;;
20073;SDS011;10197;54.282;10.078;2023-02-15T11:53:24;39.10;;;22.67;;
20073;SDS011;10197;54.282;10.078;2023-02-15T11:55:53;51.13;;;25.50;;
20073;SDS011;10197;54.282;10.078;2023-02-15T11:58:26;49.97;;;23.33;;
20073;SDS011;10197;54.282;10.078;2023-02-15T12:00:56;35.72;;;23.65;;
20073;SDS011;10197;54.282;10.078;2023-02-15T12:03:27;43.38;;;24.35;;
20073;SDS011;10197;54.282;10.078;2023-02-15T12:06:00;42.78;;;25.65;;
20073;SDS011;10197;54.282;10.078;2023-02-15T12:08:31;39.10;;;26.25;;
20073;SDS011;10197;54.282;10.078;2023-02-15T12:11:05;37.58;;;24.85;;
20073;SDS011;10197;54.282;10.078;2023-02-15T12:13:39;41.17;;;22.08;;
20073;SDS011;10197;54.282;10.078;2023-02-15T12:16:20;33.08;;;20.52;;
20073;SDS011;10197;54.282;10.078;2023-02-15T12:18:47;34.67;;;22.80;;
20073;SDS011;10197;54.282;10.078;2023-02-15T12:21:23;43.88;;;24.02;;
20073;SDS011;10197;54.282;10.078;2023-02-15T12:23:54;39.72;;;23.48;;
20073;SDS011;10197;54.282;10.078;2023-02-15T12:26:25;46.28;;;27.83;;
20073;SDS011;10197;54.282;10.078;2023-02-15T12:28:54;43.58;;;25.23;;
20073;SDS011;10197;54.282;10.078;2023-02-15T12:31:24;35.17;;;23.55;;
20073;SDS011;10197;54.282;10.078;2023-02-15T12:33:55;36.35;;;23.65;;
20073;SDS011;10197;54.282;10.078;2023-02-15T12:36:24;59.78;;;28.83;;
20073;SDS011;10197;54.282;10.078;2023-02-15T12:41:48;43.35;;;26.55;;
20073;SDS011;10197;54.282;10.078;2023-02-15T12:44:25;34.03;;;23.08;;
20073;SDS011;10197;54.282;10.078;2023-02-15T12:46:59;45.20;;;26.67;;
20073;SDS011;10197;54.282;10.078;2023-02-15T12:49:28;49.42;;;28.02;;
20073;SDS011;10197;54.282;10.078;2023-02-15T12:51:59;44.08;;;25.42;;
20073;SDS011;10197;54.282;10.078;2023-02-15T12:57:13;48.50;;;26.77;;
20073;SDS011;10197;54.282;10.078;2023-02-15T12:59:51;39.78;;;26.08;;
20073;SDS011;10197;54.282;10.078;2023-02-15T13:02:22;52.25;;;30.83;;
20073;SDS011;10197;54.282;10.078;2023-02-15T13:04:54;39.72;;;25.20;;
20073;SDS011;10197;54.282;10.078;2023-02-15T13:07:23;45.70;;;25.45;;
20073;SDS011;10197;54.282;10.078;2023-02-15T13:09:53;37.05;;;24.23;;
20073;SDS011;10197;54.282;10.078;2023-02-15T13:12:21;57.85;;;27.25;;
20073;SDS011;10197;54.282;10.078;2023-02-15T13:14:52;39.80;;;26.80;;
20073;SDS011;10197;54.282;10.078;2023-02-15T13:17:23;43.00;;;26.63;;
20073;SDS011;10197;54.282;10.078;2023-02-15T13:19:55;46.97;;;32.10;;
20073;SDS011;10197;54.282;10.078;2023-02-15T13:22:25;46.20;;;32.00;;
20073;SDS011;10197;54.282;10.078;2023-02-15T13:24:57;42.72;;;28.00;;
20073;SDS011;10197;54.282;10.078;2023-02-15T13:27:28;41.35;;;26.73;;
20073;SDS011;10197;54.282;10.078;2023-02-15T13:30:03;43.97;;;27.90;;
20073;SDS011;10197;54.282;10.078;2023-02-15T13:32:36;52.58;;;30.05;;
20073;SDS011;10197;54.282;10.078;2023-02-15T13:35:06;53.88;;;30.27;;
20073;SDS011;10197;54.282;10.078;2023-02-15T13:37:54;49.20;;;30.63;;
20073;SDS011;10197;54.282;10.078;2023-02-15T13:40:32;56.05;;;33.42;;
20073;SDS011;10197;54.282;10.078;2023-02-15T13:43:02;51.13;;;31.67;;
20073;SDS011;10197;54.282;10.078;2023-02-15T13:45:38;51.00;;;32.63;;
20073;SDS011;10197;54.282;10.078;2023-02-15T13:48:11;43.30;;;28.70;;
20073;SDS011;10197;54.282;10.078;2023-02-15T13:50:46;53.30;;;33.15;;
20073;SDS011;10197;54.282;10.078;2023-02-15T13:53:33;55.75;;;34.70;;
20073;SDS011;10197;54.282;10.078;2023-02-15T13:56:07;48.47;;;30.48;;
20073;SDS011;10197;54.282;10.078;2023-02-15T13:58:55;56.67;;;35.58;;
20073;SDS011;10197;54.282;10.078;2023-02-15T14:01:33;48.20;;;31.35;;
20073;SDS011;10197;54.282;10.078;2023-02-15T14:07:13;48.88;;;30.45;;
20073;SDS011;10197;54.282;10.078;2023-02-15T14:09:51;48.03;;;30.73;;
20073;SDS011;10197;54.282;10.078;2023-02-15T14:12:27;49.40;;;30.42;;
20073;SDS011;10197;54.282;10.078;2023-02-15T14:15:07;49.08;;;31.48;;
20073;SDS011;10197;54.282;10.078;2023-02-15T14:17:41;68.07;;;36.67;;
20073;SDS011;10197;54.282;10.078;2023-02-15T14:20:15;50.20;;;32.45;;
20073;SDS011;10197;54.282;10.078;2023-02-15T14:22:46;44.55;;;29.15;;
20073;SDS011;10197;54.282;10.078;2023-02-15T14:25:17;57.20;;;36.05;;
20073;SDS011;10197;54.282;10.078;2023-02-15T14:27:51;54.92;;;34.50;;
20073;SDS011;10197;54.282;10.078;2023-02-15T14:30:23;61.10;;;38.80;;
20073;SDS011;10197;54.282;10.078;2023-02-15T14:32:52;57.10;;;35.97;;
20073;SDS011;10197;54.282;10.078;2023-02-15T14:35:21;56.22;;;36.20;;
20073;SDS011;10197;54.282;10.078;2023-02-15T14:37:52;58.90;;;37.53;;
20073;SDS011;10197;54.282;10.078;2023-02-15T14:40:29;69.05;;;39.83;;
20073;SDS011;10197;54.282;10.078;2023-02-15T14:43:21;58.28;;;34.03;;
20073;SDS011;10197;54.282;10.078;2023-02-15T14:45:54;67.30;;;38.40;;
20073;SDS011;10197;54.282;10.078;2023-02-15T14:48:24;58.72;;;35.83;;
20073;SDS011;10197;54.282;10.078;2023-02-15T14:50:54;62.42;;;39.33;;
20073;SDS011;10197;54.282;10.078;2023-02-15T14:53:32;62.75;;;38.30;;
20073;SDS011;10197;54.282;10.078;2023-02-15T14:56:05;61.15;;;36.40;;
20073;SDS011;10197;54.282;10.078;2023-02-15T14:58:55;58.60;;;37.38;;